Time,TemperatureF,DewpointF,PressureIn,WindDirection,WindDirectionDegrees,WindSpeedMPH,WindSpeedGustMPH,Humidity,HourlyPrecipIn,Conditions,Clouds,dailyrainin,SoftwareType,DateUTC
2013-10-26 00:04:00,48.2,40.2,30.29,WNW,293,0.0,0.0,74,0.00,,,0.00,WUHU216HW,2013-10-26 04:04:00,
2013-10-26 00:09:00,47.9,40.0,30.29,WNW,293,0.0,0.0,74,0.00,,,0.00,WUHU216HW,2013-10-26 04:09:00,
2013-10-26 00:14:00,47.5,40.0,30.29,WNW,293,0.0,0.0,75,0.00,,,0.00,WUHU216HW,2013-10-26 04:14:00,
2013-10-26 00:19:00,47.2,39.6,30.29,WNW,293,0.0,0.0,75,0.00,,,0.00,WUHU216HW,2013-10-26 04:19:00,
2013-10-26 00:24:00,47.0,39.4,30.29,WNW,293,0.0,0.0,75,0.00,,,0.00,WUHU216HW,2013-10-26 04:24:00,
2013-10-26 00:29:00,46.6,39.5,30.29,WNW,293,0.0,0.2,76,0.00,,,0.00,WUHU216HW,2013-10-26 04:29:00,
2013-10-26 00:34:00,46.6,39.8,30.28,WNW,293,0.0,0.2,77,0.00,,,0.00,WUHU216HW,2013-10-26 04:34:00,
2013-10-26 00:39:00,46.6,39.8,30.28,WNW,293,0.0,0.0,77,0.00,,,0.00,WUHU216HW,2013-10-26 04:39:00,
2013-10-26 00:44:00,46.4,39.7,30.28,WNW,293,0.0,0.0,77,0.00,,,0.00,WUHU216HW,2013-10-26 04:44:00,
2013-10-26 00:49:00,46.4,39.7,30.29,WNW,293,0.0,0.0,77,0.00,,,0.00,WUHU216HW,2013-10-26 04:49:00,
2013-10-26 00:54:00,46.1,39.6,30.28,WNW,293,0.0,0.0,78,0.00,,,0.00,WUHU216HW,2013-10-26 04:54:00,
2013-10-26 00:59:00,46.3,39.5,30.28,WNW,293,0.0,0.2,77,0.00,,,0.00,WUHU216HW,2013-10-26 04:59:00,
2013-10-26 01:04:00,46.3,39.8,30.28,WNW,293,0.0,0.2,78,0.00,,,0.00,WUHU216HW,2013-10-26 05:04:00,
2013-10-26 01:09:00,46.1,39.6,30.28,WNW,293,0.0,0.0,78,0.00,,,0.00,WUHU216HW,2013-10-26 05:09:00,
2013-10-26 01:14:00,45.7,39.2,30.28,WNW,293,0.0,0.0,78,0.00,,,0.00,WUHU216HW,2013-10-26 05:14:00,
2013-10-26 01:19:00,45.7,39.0,30.28,WNW,293,0.0,0.0,77,0.00,,,0.00,WUHU216HW,2013-10-26 05:19:00,
2013-10-26 01:24:00,45.7,39.0,30.27,WNW,293,0.0,0.0,77,0.00,,,0.00,WUHU216HW,2013-10-26 05:24:00,
2013-10-26 01:29:00,45.4,38.9,30.27,WNW,293,0.0,0.0,78,0.00,,,0.00,WUHU216HW,2013-10-26 05:29:00,
2013-10-26 01:34:00,45.2,38.7,30.27,WNW,293,0.0,0.0,78,0.00,,,0.00,WUHU216HW,2013-10-26 05:34:00,
2013-10-26 01:39:00,45.2,38.7,30.27,WNW,293,0.0,0.0,78,0.00,,,0.00,WUHU216HW,2013-10-26 05:39:00,
2013-10-26 01:44:00,45.2,39.1,30.27,WNW,293,0.4,0.4,79,0.00,,,0.00,WUHU216HW,2013-10-26 05:44:00,
2013-10-26 01:49:00,45.2,39.1,30.27,WNW,293,0.0,0.4,79,0.00,,,0.00,WUHU216HW,2013-10-26 05:49:00,
2013-10-26 01:54:00,45.2,39.1,30.26,NW,315,0.0,0.4,79,0.00,,,0.00,WUHU216HW,2013-10-26 05:54:00,
2013-10-26 01:59:00,45.2,39.1,30.27,WNW,293,0.0,0.7,79,0.00,,,0.00,WUHU216HW,2013-10-26 05:59:00,
2013-10-26 02:05:00,45.0,38.9,30.27,WNW,293,0.0,0.7,79,0.00,,,0.00,WUHU216HW,2013-10-26 06:05:00,
2013-10-26 02:10:00,44.8,38.7,30.26,WNW,293,0.0,0.2,79,0.00,,,0.00,WUHU216HW,2013-10-26 06:10:00,
2013-10-26 02:15:00,44.6,38.5,30.27,WNW,293,0.0,0.0,79,0.00,,,0.00,WUHU216HW,2013-10-26 06:15:00,
2013-10-26 02:20:00,44.8,38.7,30.27,WNW,293,0.0,0.0,79,0.00,,,0.00,WUHU216HW,2013-10-26 06:20:00,
2013-10-26 02:25:00,44.8,38.7,30.27,WNW,293,0.0,0.0,79,0.00,,,0.00,WUHU216HW,2013-10-26 06:25:00,
2013-10-26 02:30:00,44.6,38.9,30.27,WNW,293,0.4,0.4,80,0.00,,,0.00,WUHU216HW,2013-10-26 06:30:00,
2013-10-26 02:35:00,44.6,38.9,30.27,WNW,293,0.0,0.4,80,0.00,,,0.00,WUHU216HW,2013-10-26 06:35:00,
2013-10-26 02:40:00,44.8,39.1,30.26,NW,315,0.0,0.0,80,0.00,,,0.00,WUHU216HW,2013-10-26 06:40:00,
2013-10-26 02:45:00,44.6,38.9,30.26,NW,315,0.0,0.0,80,0.00,,,0.00,WUHU216HW,2013-10-26 06:45:00,
2013-10-26 02:50:00,44.6,38.9,30.26,NW,315,0.0,0.0,80,0.00,,,0.00,WUHU216HW,2013-10-26 06:50:00,
2013-10-26 02:55:00,44.6,38.9,30.26,North,0,0.4,0.4,80,0.00,,,0.00,WUHU216HW,2013-10-26 06:55:00,
2013-10-26 03:00:00,44.6,38.9,30.25,North,0,0.0,0.4,80,0.00,,,0.00,WUHU216HW,2013-10-26 07:00:00,
2013-10-26 03:05:00,44.6,38.9,30.25,North,0,0.0,0.2,80,0.00,,,0.00,WUHU216HW,2013-10-26 07:05:00,
2013-10-26 03:10:00,44.6,39.2,30.25,North,0,0.0,0.2,81,0.00,,,0.00,WUHU216HW,2013-10-26 07:10:00,
2013-10-26 03:15:00,44.6,38.9,30.25,NE,45,0.0,0.7,80,0.00,,,0.00,WUHU216HW,2013-10-26 07:15:00,
2013-10-26 03:20:00,44.6,38.9,30.25,NE,45,0.0,0.7,80,0.00,,,0.00,WUHU216HW,2013-10-26 07:20:00,
2013-10-26 03:25:00,44.5,39.0,30.24,NE,45,0.2,0.4,81,0.00,,,0.00,WUHU216HW,2013-10-26 07:25:00,
2013-10-26 03:30:00,44.3,38.8,30.25,NNE,23,0.2,0.7,81,0.00,,,0.00,WUHU216HW,2013-10-26 07:30:00,
2013-10-26 03:35:00,44.3,38.8,30.24,NNE,23,0.0,0.7,81,0.00,,,0.00,WUHU216HW,2013-10-26 07:35:00,
2013-10-26 03:40:00,44.3,38.8,30.24,NNE,23,0.0,0.4,81,0.00,,,0.00,WUHU216HW,2013-10-26 07:40:00,
2013-10-26 03:45:00,44.3,38.8,30.24,NNE,23,0.0,0.4,81,0.00,,,0.00,WUHU216HW,2013-10-26 07:45:00,
2013-10-26 03:50:00,44.3,38.8,30.24,NNE,23,0.0,0.4,81,0.00,,,0.00,WUHU216HW,2013-10-26 07:50:00,
2013-10-26 03:55:00,44.1,38.6,30.24,NNE,23,0.4,0.4,81,0.00,,,0.00,WUHU216HW,2013-10-26 07:55:00,
2013-10-26 04:00:00,44.1,38.6,30.24,NNE,23,0.4,0.4,81,0.00,,,0.00,WUHU216HW,2013-10-26 08:00:00,
2013-10-26 04:05:00,43.9,38.4,30.24,NNE,23,0.7,0.7,81,0.00,,,0.00,WUHU216HW,2013-10-26 08:05:00,
2013-10-26 04:10:00,43.9,38.4,30.24,NNE,23,0.4,0.7,81,0.00,,,0.00,WUHU216HW,2013-10-26 08:10:00,
2013-10-26 04:15:00,44.1,38.6,30.24,NNE,23,0.0,0.7,81,0.00,,,0.00,WUHU216HW,2013-10-26 08:15:00,
2013-10-26 04:20:00,43.9,38.4,30.23,NNE,23,0.2,0.7,81,0.00,,,0.00,WUHU216HW,2013-10-26 08:20:00,
2013-10-26 04:25:00,44.1,38.6,30.23,NNE,23,0.4,0.7,81,0.00,,,0.00,WUHU216HW,2013-10-26 08:25:00,
2013-10-26 04:30:00,44.1,38.6,30.23,NNE,23,0.9,1.1,81,0.00,,,0.00,WUHU216HW,2013-10-26 08:30:00,
2013-10-26 04:35:00,44.1,38.6,30.24,NNE,23,1.8,1.8,81,0.00,,,0.00,WUHU216HW,2013-10-26 08:35:00,
2013-10-26 04:40:00,44.1,38.6,30.24,NNE,23,0.4,1.8,81,0.00,,,0.00,WUHU216HW,2013-10-26 08:40:00,
2013-10-26 04:45:00,44.1,38.6,30.24,North,0,1.1,1.1,81,0.00,,,0.00,WUHU216HW,2013-10-26 08:45:00,
2013-10-26 04:50:00,44.1,38.6,30.24,NNE,23,0.9,1.6,81,0.00,,,0.00,WUHU216HW,2013-10-26 08:50:00,
2013-10-26 04:55:00,44.1,38.6,30.23,North,0,0.4,1.6,81,0.00,,,0.00,WUHU216HW,2013-10-26 08:55:00,
2013-10-26 05:00:00,44.1,38.6,30.23,NNE,23,0.7,1.1,81,0.00,,,0.00,WUHU216HW,2013-10-26 09:00:00,
2013-10-26 05:05:00,44.1,38.6,30.23,North,0,1.1,1.6,81,0.00,,,0.00,WUHU216HW,2013-10-26 09:05:00,
2013-10-26 05:10:00,44.1,39.0,30.23,North,0,0.7,1.6,82,0.00,,,0.00,WUHU216HW,2013-10-26 09:10:00,
2013-10-26 05:15:00,44.3,39.2,30.23,North,0,1.3,1.8,82,0.00,,,0.00,WUHU216HW,2013-10-26 09:15:00,
2013-10-26 05:20:00,44.1,39.0,30.23,NNE,23,0.7,1.8,82,0.00,,,0.00,WUHU216HW,2013-10-26 09:20:00,
2013-10-26 05:25:00,44.3,39.2,30.23,North,0,1.6,1.6,82,0.00,,,0.00,WUHU216HW,2013-10-26 09:25:00,
2013-10-26 05:30:00,44.1,39.0,30.24,North,0,0.9,1.6,82,0.00,,,0.00,WUHU216HW,2013-10-26 09:30:00,
2013-10-26 05:35:00,44.1,39.0,30.24,North,0,0.4,1.3,82,0.00,,,0.00,WUHU216HW,2013-10-26 09:35:00,
2013-10-26 05:40:00,43.9,38.8,30.24,NNE,23,0.4,1.1,82,0.00,,,0.00,WUHU216HW,2013-10-26 09:40:00,
2013-10-26 05:45:00,43.9,38.8,30.24,North,0,0.9,1.1,82,0.00,,,0.00,WUHU216HW,2013-10-26 09:45:00,
2013-10-26 05:50:00,43.9,38.8,30.25,NNE,23,0.7,1.1,82,0.00,,,0.00,WUHU216HW,2013-10-26 09:50:00,
2013-10-26 05:55:00,43.9,38.8,30.25,NNE,23,1.1,1.1,82,0.00,,,0.00,WUHU216HW,2013-10-26 09:55:00,
2013-10-26 06:00:00,43.9,38.8,30.25,NNE,23,0.4,1.1,82,0.00,,,0.00,WUHU216HW,2013-10-26 10:00:00,
2013-10-26 06:05:00,43.9,38.8,30.25,NNE,23,0.7,1.3,82,0.00,,,0.00,WUHU216HW,2013-10-26 10:05:00,
2013-10-26 06:10:00,43.9,39.1,30.25,North,0,1.3,1.3,83,0.00,,,0.00,WUHU216HW,2013-10-26 10:10:00,
2013-10-26 06:15:00,43.7,38.9,30.25,NNE,23,0.7,1.3,83,0.00,,,0.00,WUHU216HW,2013-10-26 10:15:00,
2013-10-26 06:20:00,43.7,38.9,30.25,NNE,23,1.6,1.6,83,0.00,,,0.00,WUHU216HW,2013-10-26 10:20:00,
2013-10-26 06:25:00,43.7,38.9,30.25,North,0,1.1,1.6,83,0.00,,,0.00,WUHU216HW,2013-10-26 10:25:00,
2013-10-26 06:30:00,43.6,38.7,30.25,North,0,0.9,1.3,83,0.00,,,0.00,WUHU216HW,2013-10-26 10:30:00,
2013-10-26 06:35:00,43.6,38.7,30.26,North,0,1.1,1.3,83,0.00,,,0.00,WUHU216HW,2013-10-26 10:35:00,
2013-10-26 06:40:00,43.6,38.7,30.26,North,0,0.7,1.6,83,0.00,,,0.00,WUHU216HW,2013-10-26 10:40:00,
2013-10-26 06:45:00,43.6,38.7,30.26,North,0,1.1,1.6,83,0.00,,,0.00,WUHU216HW,2013-10-26 10:45:00,
2013-10-26 06:50:00,43.6,38.7,30.26,North,0,1.1,1.1,83,0.00,,,0.00,WUHU216HW,2013-10-26 10:50:00,
2013-10-26 06:55:00,43.4,38.5,30.26,North,0,1.6,1.6,83,0.00,,,0.00,WUHU216HW,2013-10-26 10:55:00,
2013-10-26 07:00:00,43.2,38.3,30.26,North,0,1.1,1.6,83,0.00,,,0.00,WUHU216HW,2013-10-26 11:00:00,
2013-10-26 07:05:00,43.2,38.3,30.26,North,0,0.4,1.3,83,0.00,,,0.00,WUHU216HW,2013-10-26 11:05:00,
2013-10-26 07:10:00,43.2,38.7,30.26,NNE,23,0.7,1.1,84,0.00,,,0.00,WUHU216HW,2013-10-26 11:10:00,
2013-10-26 07:15:00,43.2,38.7,30.26,North,0,0.9,1.1,84,0.00,,,0.00,WUHU216HW,2013-10-26 11:15:00,
2013-10-26 07:20:00,43.2,38.3,30.26,North,0,0.7,1.1,83,0.00,,,0.00,WUHU216HW,2013-10-26 11:20:00,
2013-10-26 07:25:00,43.2,38.7,30.26,North,0,1.1,1.8,84,0.00,,,0.00,WUHU216HW,2013-10-26 11:25:00,
2013-10-26 07:30:00,43.0,38.5,30.26,NNE,23,1.3,1.8,84,0.00,,,0.00,WUHU216HW,2013-10-26 11:30:00,
2013-10-26 07:35:00,42.8,38.4,30.26,North,0,1.1,1.6,84,0.00,,,0.00,WUHU216HW,2013-10-26 11:35:00,
2013-10-26 07:40:00,42.8,38.4,30.26,North,0,1.1,1.6,84,0.00,,,0.00,WUHU216HW,2013-10-26 11:40:00,
2013-10-26 07:45:00,43.0,38.5,30.26,North,0,1.1,1.6,84,0.00,,,0.00,WUHU216HW,2013-10-26 11:45:00,
2013-10-26 07:50:00,43.0,38.8,30.26,North,0,1.1,1.6,85,0.00,,,0.00,WUHU216HW,2013-10-26 11:50:00,
2013-10-26 07:55:00,43.0,38.5,30.26,North,0,1.3,1.3,84,0.00,,,0.00,WUHU216HW,2013-10-26 11:55:00,
2013-10-26 08:00:00,43.0,38.8,30.26,NE,45,0.7,1.8,85,0.00,,,0.00,WUHU216HW,2013-10-26 12:00:00,
2013-10-26 08:05:00,43.0,38.5,30.26,NNE,23,0.9,1.8,84,0.00,,,0.00,WUHU216HW,2013-10-26 12:05:00,
2013-10-26 08:10:00,43.0,38.8,30.26,NE,45,0.4,1.1,85,0.00,,,0.00,WUHU216HW,2013-10-26 12:10:00,
2013-10-26 08:15:00,43.0,38.8,30.27,North,0,1.3,1.6,85,0.00,,,0.00,WUHU216HW,2013-10-26 12:15:00,
2013-10-26 08:20:00,43.6,39.3,30.27,NNE,23,0.7,1.6,85,0.00,,,0.00,WUHU216HW,2013-10-26 12:20:00,
2013-10-26 08:25:00,43.9,39.4,30.27,North,0,1.1,1.3,84,0.00,,,0.00,WUHU216HW,2013-10-26 12:25:00,
2013-10-26 08:30:00,44.5,40.0,30.27,North,0,1.3,1.3,84,0.00,,,0.00,WUHU216HW,2013-10-26 12:30:00,
2013-10-26 08:35:00,45.0,40.1,30.27,North,0,0.9,1.3,83,0.00,,,0.00,WUHU216HW,2013-10-26 12:35:00,
2013-10-26 08:40:00,46.4,41.3,30.27,NE,45,1.1,1.1,82,0.00,,,0.00,WUHU216HW,2013-10-26 12:40:00,
2013-10-26 08:45:00,46.8,41.3,30.27,North,0,1.6,1.8,81,0.00,,,0.00,WUHU216HW,2013-10-26 12:45:00,
2013-10-26 08:50:00,46.6,40.9,30.27,North,0,1.3,1.8,80,0.00,,,0.00,WUHU216HW,2013-10-26 12:50:00,
2013-10-26 08:55:00,47.0,41.1,30.28,North,0,0.7,1.8,80,0.00,,,0.00,WUHU216HW,2013-10-26 12:55:00,
2013-10-26 09:00:00,47.2,41.3,30.27,North,0,0.7,1.6,80,0.00,,,0.00,WUHU216HW,2013-10-26 13:00:00,
2013-10-26 09:05:00,47.2,41.3,30.28,North,0,0.9,1.6,80,0.00,,,0.00,WUHU216HW,2013-10-26 13:05:00,
2013-10-26 09:10:00,47.3,41.5,30.28,NE,45,1.6,2.5,80,0.00,,,0.00,WUHU216HW,2013-10-26 13:10:00,
2013-10-26 09:15:00,47.5,41.7,30.28,NNE,23,0.4,2.5,80,0.00,,,0.00,WUHU216HW,2013-10-26 13:15:00,
2013-10-26 09:20:00,47.9,41.9,30.28,NNE,23,1.6,2.0,80,0.00,,,0.00,WUHU216HW,2013-10-26 13:20:00,
2013-10-26 09:25:00,48.2,41.9,30.28,NE,45,1.8,2.5,79,0.00,,,0.00,WUHU216HW,2013-10-26 13:25:00,
2013-10-26 09:30:00,48.6,41.9,30.28,NE,45,0.0,2.5,78,0.00,,,0.00,WUHU216HW,2013-10-26 13:30:00,
2013-10-26 09:35:00,49.0,42.3,30.28,NE,45,2.0,2.0,78,0.00,,,0.00,WUHU216HW,2013-10-26 13:35:00,
2013-10-26 09:40:00,49.7,43.0,30.29,NE,45,1.8,2.0,78,0.00,,,0.00,WUHU216HW,2013-10-26 13:40:00,
2013-10-26 09:45:00,50.2,43.3,30.29,ENE,68,0.9,2.0,77,0.00,,,0.00,WUHU216HW,2013-10-26 13:45:00,
2013-10-26 09:50:00,50.8,43.1,30.29,NE,45,3.4,3.4,75,0.00,,,0.00,WUHU216HW,2013-10-26 13:50:00,
2013-10-26 09:55:00,51.3,43.7,30.29,NNE,23,0.9,3.4,75,0.00,,,0.00,WUHU216HW,2013-10-26 13:55:00,
2013-10-26 10:00:00,51.5,43.5,30.29,NE,45,1.6,3.4,74,0.00,,,0.00,WUHU216HW,2013-10-26 14:00:00,
2013-10-26 10:05:00,52.2,43.8,30.29,NE,45,3.4,3.4,73,0.00,,,0.00,WUHU216HW,2013-10-26 14:05:00,
2013-10-26 10:10:00,53.8,45.4,30.29,North,0,1.3,4.3,73,0.00,,,0.00,WUHU216HW,2013-10-26 14:10:00,
2013-10-26 10:15:00,56.2,46.9,30.29,NNE,23,0.9,4.3,71,0.00,,,0.00,WUHU216HW,2013-10-26 14:15:00,
2013-10-26 10:20:00,57.6,47.1,30.29,NNE,23,1.6,1.8,68,0.00,,,0.00,WUHU216HW,2013-10-26 14:20:00,
2013-10-26 10:25:00,57.4,46.1,30.29,North,0,1.1,2.5,66,0.00,,,0.00,WUHU216HW,2013-10-26 14:25:00,
2013-10-26 10:30:00,57.2,45.9,30.28,North,0,1.8,2.5,66,0.00,,,0.00,WUHU216HW,2013-10-26 14:30:00,
2013-10-26 10:35:00,57.2,45.5,30.28,NE,45,3.4,3.4,65,0.00,,,0.00,WUHU216HW,2013-10-26 14:35:00,
2013-10-26 10:40:00,57.4,45.3,30.28,North,0,2.0,3.6,64,0.00,,,0.00,WUHU216HW,2013-10-26 14:40:00,
2013-10-26 10:45:00,58.7,46.9,30.28,North,0,1.6,3.6,65,0.00,,,0.00,WUHU216HW,2013-10-26 14:45:00,
2013-10-26 10:50:00,62.6,50.7,30.28,NNE,23,1.8,2.5,65,0.00,,,0.00,WUHU216HW,2013-10-26 14:50:00,
2013-10-26 10:55:00,65.5,51.8,30.28,NE,45,1.6,3.8,61,0.00,,,0.00,WUHU216HW,2013-10-26 14:55:00,
2013-10-26 11:00:00,67.7,50.9,30.28,ENE,68,3.6,3.8,55,0.00,,,0.00,WUHU216HW,2013-10-26 15:00:00,
2013-10-26 11:05:00,67.9,48.6,30.27,NE,45,2.5,3.8,50,0.00,,,0.00,WUHU216HW,2013-10-26 15:05:00,
2013-10-26 11:10:00,69.3,51.0,30.27,ENE,68,2.5,3.8,52,0.00,,,0.00,WUHU216HW,2013-10-26 15:10:00,
2013-10-26 11:15:00,70.2,51.2,30.27,East,90,1.8,4.5,51,0.00,,,0.00,WUHU216HW,2013-10-26 15:15:00,
2013-10-26 11:20:00,71.3,51.7,30.27,North,0,2.5,4.7,50,0.00,,,0.00,WUHU216HW,2013-10-26 15:20:00,
2013-10-26 11:25:00,72.9,52.6,30.27,NE,45,1.3,4.7,49,0.00,,,0.00,WUHU216HW,2013-10-26 15:25:00,
2013-10-26 11:30:00,73.1,51.6,30.28,ENE,68,2.5,3.4,47,0.00,,,0.00,WUHU216HW,2013-10-26 15:30:00,
2013-10-26 11:35:00,73.6,52.7,30.28,North,0,1.8,3.4,48,0.00,,,0.00,WUHU216HW,2013-10-26 15:35:00,
2013-10-26 11:40:00,74.9,52.7,30.28,ENE,68,1.1,3.1,46,0.00,,,0.00,WUHU216HW,2013-10-26 15:40:00,
2013-10-26 11:45:00,74.7,52.5,30.28,ENE,68,0.4,4.5,46,0.00,,,0.00,WUHU216HW,2013-10-26 15:45:00,
2013-10-26 11:50:00,76.0,53.0,30.28,NNE,23,3.4,4.5,45,0.00,,,0.00,WUHU216HW,2013-10-26 15:50:00,
2013-10-26 11:55:00,77.8,55.3,30.28,North,0,1.1,3.4,46,0.00,,,0.00,WUHU216HW,2013-10-26 15:55:00,
2013-10-26 12:00:00,77.8,52.8,30.27,North,0,1.1,2.0,42,0.00,,,0.00,WUHU216HW,2013-10-26 16:00:00,
2013-10-26 12:05:00,77.8,52.8,30.27,NE,45,1.8,3.6,42,0.00,,,0.00,WUHU216HW,2013-10-26 16:05:00,
2013-10-26 12:10:00,77.9,53.0,30.27,NE,45,1.8,5.6,42,0.00,,,0.00,WUHU216HW,2013-10-26 16:10:00,
2013-10-26 12:15:00,78.5,54.1,30.26,NE,45,0.4,5.6,43,0.00,,,0.00,WUHU216HW,2013-10-26 16:15:00,
2013-10-26 12:20:00,79.7,54.6,30.26,East,90,1.8,3.4,42,0.00,,,0.00,WUHU216HW,2013-10-26 16:20:00,
2013-10-26 12:25:00,79.4,53.6,30.26,East,90,0.0,3.1,41,0.00,,,0.00,WUHU216HW,2013-10-26 16:25:00,
2013-10-26 12:30:00,79.0,52.8,30.26,SW,225,2.7,3.4,40,0.00,,,0.00,WUHU216HW,2013-10-26 16:30:00,
2013-10-26 12:35:00,77.2,51.8,30.26,NE,45,2.7,4.0,41,0.00,,,0.00,WUHU216HW,2013-10-26 16:35:00,
2013-10-26 12:40:00,76.7,51.8,30.26,NNW,338,2.2,4.0,42,0.00,,,0.00,WUHU216HW,2013-10-26 16:40:00,
2013-10-26 12:45:00,76.0,51.2,30.25,SSE,158,1.3,2.2,42,0.00,,,0.00,WUHU216HW,2013-10-26 16:45:00,
2013-10-26 12:50:00,74.2,50.8,30.25,ENE,68,2.5,2.5,44,0.00,,,0.00,WUHU216HW,2013-10-26 16:50:00,
2013-10-26 12:55:00,74.3,51.6,30.25,North,0,2.5,3.4,45,0.00,,,0.00,WUHU216HW,2013-10-26 16:55:00,
2013-10-26 13:00:00,74.5,51.1,30.25,North,0,3.4,3.8,44,0.00,,,0.00,WUHU216HW,2013-10-26 17:00:00,
2013-10-26 13:05:00,74.2,51.4,30.25,ENE,68,2.5,3.8,45,0.00,,,0.00,WUHU216HW,2013-10-26 17:05:00,
2013-10-26 13:10:00,73.1,50.3,30.24,North,0,2.2,2.5,45,0.00,,,0.00,WUHU216HW,2013-10-26 17:10:00,
2013-10-26 13:15:00,72.7,50.1,30.24,NE,45,0.7,3.4,45,0.00,,,0.00,WUHU216HW,2013-10-26 17:15:00,
2013-10-26 13:20:00,71.6,49.7,30.24,NE,45,0.2,3.4,46,0.00,,,0.00,WUHU216HW,2013-10-26 17:20:00,
2013-10-26 13:25:00,71.5,50.0,30.24,North,0,2.2,2.2,47,0.00,,,0.00,WUHU216HW,2013-10-26 17:25:00,
2013-10-26 13:30:00,71.3,50.0,30.23,ENE,68,1.8,3.1,47,0.00,,,0.00,WUHU216HW,2013-10-26 17:30:00,
2013-10-26 13:35:00,71.1,50.3,30.23,NNE,23,2.9,3.1,48,0.00,,,0.00,WUHU216HW,2013-10-26 17:35:00,
2013-10-26 13:40:00,71.1,50.3,30.23,ENE,68,0.7,2.9,48,0.00,,,0.00,WUHU216HW,2013-10-26 17:40:00,
2013-10-26 13:45:00,70.7,50.1,30.22,SW,225,2.5,2.5,48,0.00,,,0.00,WUHU216HW,2013-10-26 17:45:00,
2013-10-26 13:50:00,70.2,49.5,30.22,SSW,203,2.2,2.5,48,0.00,,,0.00,WUHU216HW,2013-10-26 17:50:00,
2013-10-26 13:55:00,70.0,50.0,30.22,SE,135,1.6,3.4,49,0.00,,,0.00,WUHU216HW,2013-10-26 17:55:00,
2013-10-26 14:00:00,69.3,48.2,30.22,NNW,338,0.2,3.4,47,0.00,,,0.00,WUHU216HW,2013-10-26 18:00:00,
2013-10-26 14:05:00,69.1,48.6,30.21,East,90,1.1,3.4,48,0.00,,,0.00,WUHU216HW,2013-10-26 18:05:00,
2013-10-26 14:10:00,69.1,49.1,30.20,South,180,2.9,3.6,49,0.00,,,0.00,WUHU216HW,2013-10-26 18:10:00,
2013-10-26 14:15:00,69.3,48.2,30.20,SSE,158,1.6,3.6,47,0.00,,,0.00,WUHU216HW,2013-10-26 18:15:00,
2013-10-26 14:20:00,68.9,48.4,30.19,WSW,248,0.9,2.7,48,0.00,,,0.00,WUHU216HW,2013-10-26 18:20:00,
2013-10-26 14:25:00,69.5,48.9,30.20,West,270,1.1,2.5,48,0.00,,,0.00,WUHU216HW,2013-10-26 18:25:00,
2013-10-26 14:30:00,69.8,50.4,30.20,ESE,113,1.3,2.9,50,0.00,,,0.00,WUHU216HW,2013-10-26 18:30:00,
2013-10-26 14:35:00,70.2,49.5,30.20,East,90,0.9,4.0,48,0.00,,,0.00,WUHU216HW,2013-10-26 18:35:00,
2013-10-26 14:40:00,70.7,48.9,30.19,East,90,1.6,4.7,46,0.00,,,0.00,WUHU216HW,2013-10-26 18:40:00,
2013-10-26 14:45:00,70.9,50.2,30.19,North,0,2.5,4.7,48,0.00,,,0.00,WUHU216HW,2013-10-26 18:45:00,
2013-10-26 14:50:00,71.3,50.0,30.19,SW,225,3.8,4.3,47,0.00,,,0.00,WUHU216HW,2013-10-26 18:50:00,
2013-10-26 14:55:00,71.3,50.0,30.19,West,270,1.6,4.3,47,0.00,,,0.00,WUHU216HW,2013-10-26 18:55:00,
2013-10-26 15:00:00,71.5,49.5,30.19,SSW,203,1.8,2.2,46,0.00,,,0.00,WUHU216HW,2013-10-26 19:00:00,
2013-10-26 15:05:00,70.7,47.6,30.19,WSW,248,1.1,4.3,44,0.00,,,0.00,WUHU216HW,2013-10-26 19:05:00,
2013-10-26 15:10:00,70.2,47.2,30.18,WSW,248,1.1,4.3,44,0.00,,,0.00,WUHU216HW,2013-10-26 19:10:00,
2013-10-26 15:15:00,70.2,48.3,30.18,WSW,248,2.7,3.6,46,0.00,,,0.00,WUHU216HW,2013-10-26 19:15:00,
2013-10-26 15:20:00,70.6,48.7,30.18,West,270,0.4,2.7,46,0.00,,,0.00,WUHU216HW,2013-10-26 19:20:00,
2013-10-26 15:25:00,70.9,49.6,30.18,WSW,248,2.7,2.7,47,0.00,,,0.00,WUHU216HW,2013-10-26 19:25:00,
2013-10-26 15:30:00,70.9,49.0,30.18,WSW,248,2.5,4.3,46,0.00,,,0.00,WUHU216HW,2013-10-26 19:30:00,
2013-10-26 15:35:00,70.4,47.9,30.18,WSW,248,3.1,4.3,45,0.00,,,0.00,WUHU216HW,2013-10-26 19:35:00,
2013-10-26 15:40:00,70.0,48.8,30.18,North,0,1.6,4.0,47,0.00,,,0.00,WUHU216HW,2013-10-26 19:40:00,
2013-10-26 15:45:00,70.2,49.0,30.19,WSW,248,4.0,4.0,47,0.00,,,0.00,WUHU216HW,2013-10-26 19:45:00,
2013-10-26 15:50:00,69.8,48.6,30.18,ENE,68,2.0,4.0,47,0.00,,,0.00,WUHU216HW,2013-10-26 19:50:00,
2013-10-26 15:55:00,69.7,48.4,30.18,ENE,68,1.8,3.1,47,0.00,,,0.00,WUHU216HW,2013-10-26 19:55:00,
2013-10-26 16:00:00,69.5,48.3,30.18,South,180,1.6,3.1,47,0.00,,,0.00,WUHU216HW,2013-10-26 20:00:00,
2013-10-26 16:05:00,69.3,47.5,30.18,SSW,203,1.1,2.5,46,0.00,,,0.00,WUHU216HW,2013-10-26 20:05:00,
2013-10-26 16:10:00,68.9,47.8,30.18,NNW,338,0.9,2.5,47,0.00,,,0.00,WUHU216HW,2013-10-26 20:10:00,
2013-10-26 16:15:00,68.9,47.8,30.18,NE,45,0.7,1.3,47,0.00,,,0.00,WUHU216HW,2013-10-26 20:15:00,
2013-10-26 16:20:00,68.9,47.8,30.18,NNE,23,0.9,1.3,47,0.00,,,0.00,WUHU216HW,2013-10-26 20:20:00,
2013-10-26 16:25:00,68.8,47.6,30.18,ENE,68,1.1,1.3,47,0.00,,,0.00,WUHU216HW,2013-10-26 20:25:00,
2013-10-26 16:30:00,68.8,47.6,30.17,ENE,68,1.8,1.8,47,0.00,,,0.00,WUHU216HW,2013-10-26 20:30:00,
2013-10-26 16:35:00,68.4,47.4,30.17,ENE,68,1.1,2.0,47,0.00,,,0.00,WUHU216HW,2013-10-26 20:35:00,
2013-10-26 16:40:00,68.2,47.2,30.17,NE,45,0.9,2.0,47,0.00,,,0.00,WUHU216HW,2013-10-26 20:40:00,
2013-10-26 16:45:00,68.0,47.6,30.16,West,270,2.5,2.5,48,0.00,,,0.00,WUHU216HW,2013-10-26 20:45:00,
2013-10-26 16:50:00,68.0,47.0,30.16,WSW,248,1.8,3.1,47,0.00,,,0.00,WUHU216HW,2013-10-26 20:50:00,
2013-10-26 16:55:00,68.0,46.5,30.16,WNW,293,0.0,3.1,46,0.00,,,0.00,WUHU216HW,2013-10-26 20:55:00,
2013-10-26 17:00:00,68.0,47.0,30.16,WSW,248,1.1,2.9,47,0.00,,,0.00,WUHU216HW,2013-10-26 21:00:00,
2013-10-26 17:05:00,68.0,47.0,30.16,ESE,113,0.0,1.8,47,0.00,,,0.00,WUHU216HW,2013-10-26 21:05:00,
2013-10-26 17:10:00,68.0,47.0,30.16,WSW,248,0.4,1.6,47,0.00,,,0.00,WUHU216HW,2013-10-26 21:10:00,
2013-10-26 17:15:00,67.9,47.4,30.16,North,0,0.7,1.1,48,0.00,,,0.00,WUHU216HW,2013-10-26 21:15:00,
2013-10-26 17:20:00,67.7,47.9,30.16,ESE,113,0.0,1.1,49,0.00,,,0.00,WUHU216HW,2013-10-26 21:20:00,
2013-10-26 17:25:00,67.3,47.5,30.16,ESE,113,0.0,1.1,49,0.00,,,0.00,WUHU216HW,2013-10-26 21:25:00,
2013-10-26 17:30:00,67.3,47.5,30.16,NE,45,0.9,0.9,49,0.00,,,0.00,WUHU216HW,2013-10-26 21:30:00,
2013-10-26 17:35:00,67.0,47.8,30.16,NNE,23,1.1,1.1,50,0.00,,,0.00,WUHU216HW,2013-10-26 21:35:00,
2013-10-26 17:40:00,66.6,47.5,30.16,NNE,23,0.7,1.1,50,0.00,,,0.00,WUHU216HW,2013-10-26 21:40:00,
2013-10-26 17:45:00,66.4,47.8,30.16,South,180,0.4,1.3,51,0.00,,,0.00,WUHU216HW,2013-10-26 21:45:00,
2013-10-26 17:50:00,66.1,47.4,30.16,NNE,23,0.0,1.6,51,0.00,,,0.00,WUHU216HW,2013-10-26 21:50:00,
2013-10-26 17:56:00,65.9,47.8,30.16,NNE,23,0.4,1.6,52,0.00,,,0.00,WUHU216HW,2013-10-26 21:56:00,
2013-10-26 18:01:00,65.7,47.6,30.16,NNE,23,0.4,0.7,52,0.00,,,0.00,WUHU216HW,2013-10-26 22:01:00,
2013-10-26 18:06:00,65.2,47.1,30.16,NNE,23,0.0,0.7,52,0.00,,,0.00,WUHU216HW,2013-10-26 22:06:00,
2013-10-26 18:11:00,65.0,47.3,30.15,NNE,23,0.0,0.4,53,0.00,,,0.00,WUHU216HW,2013-10-26 22:11:00,
2013-10-26 18:16:00,64.6,47.0,30.15,NNE,23,0.0,0.0,53,0.00,,,0.00,WUHU216HW,2013-10-26 22:16:00,
2013-10-26 18:21:00,64.3,47.2,30.16,NNE,23,0.0,0.0,54,0.00,,,0.00,WUHU216HW,2013-10-26 22:21:00,
2013-10-26 18:26:00,63.7,47.2,30.16,NNE,23,0.0,0.0,55,0.00,,,0.00,WUHU216HW,2013-10-26 22:26:00,
2013-10-26 18:31:00,63.5,47.4,30.15,NNE,23,0.0,0.0,56,0.00,,,0.00,WUHU216HW,2013-10-26 22:31:00,
2013-10-26 18:36:00,63.2,47.6,30.15,NNE,23,0.0,0.0,57,0.00,,,0.00,WUHU216HW,2013-10-26 22:36:00,
2013-10-26 18:41:00,62.6,47.6,30.15,NNE,23,0.0,0.0,58,0.00,,,0.00,WUHU216HW,2013-10-26 22:41:00,
2013-10-26 18:46:00,62.3,47.8,30.16,NNE,23,0.0,0.0,59,0.00,,,0.00,WUHU216HW,2013-10-26 22:46:00,
2013-10-26 18:51:00,61.9,48.0,30.16,NNE,23,0.0,0.0,60,0.00,,,0.00,WUHU216HW,2013-10-26 22:51:00,
2013-10-26 18:56:00,61.6,47.6,30.16,NNE,23,0.0,0.0,60,0.00,,,0.00,WUHU216HW,2013-10-26 22:56:00,
2013-10-26 19:01:00,61.0,47.5,30.16,NNE,23,0.0,0.0,61,0.00,,,0.00,WUHU216HW,2013-10-26 23:01:00,
2013-10-26 19:06:00,60.5,47.4,30.16,NNE,23,0.0,0.0,62,0.00,,,0.00,WUHU216HW,2013-10-26 23:06:00,
2013-10-26 19:11:00,59.9,46.9,30.16,NNE,23,0.0,0.0,62,0.00,,,0.00,WUHU216HW,2013-10-26 23:11:00,
2013-10-26 19:16:00,59.6,47.0,30.16,NNE,23,0.0,0.0,63,0.00,,,0.00,WUHU216HW,2013-10-26 23:16:00,
2013-10-26 19:21:00,59.2,46.6,30.16,NNE,23,0.0,0.0,63,0.00,,,0.00,WUHU216HW,2013-10-26 23:21:00,
2013-10-26 19:26:00,59.2,47.0,30.16,NNE,23,0.0,0.0,64,0.00,,,0.00,WUHU216HW,2013-10-26 23:26:00,
2013-10-26 19:31:00,58.9,46.7,30.16,NNE,23,0.0,0.0,64,0.00,,,0.00,WUHU216HW,2013-10-26 23:31:00,
2013-10-26 19:36:00,58.5,46.7,30.17,NNE,23,0.0,0.0,65,0.00,,,0.00,WUHU216HW,2013-10-26 23:36:00,
2013-10-26 19:41:00,58.1,46.4,30.17,NNE,23,0.0,0.0,65,0.00,,,0.00,WUHU216HW,2013-10-26 23:41:00,
2013-10-26 19:46:00,57.8,46.4,30.17,NNE,23,0.0,0.0,66,0.00,,,0.00,WUHU216HW,2013-10-26 23:46:00,
2013-10-26 19:51:00,57.4,46.5,30.17,NNE,23,0.0,0.0,67,0.00,,,0.00,WUHU216HW,2013-10-26 23:51:00,
2013-10-26 19:56:00,57.1,46.5,30.17,NNE,23,0.0,0.0,68,0.00,,,0.00,WUHU216HW,2013-10-26 23:56:00,
2013-10-26 20:01:00,56.9,46.5,30.17,NNE,23,0.0,0.0,68,0.00,,,0.00,WUHU216HW,2013-10-27 00:01:00,
2013-10-26 20:06:00,56.5,46.4,30.17,NNE,23,0.0,0.0,69,0.00,,,0.00,WUHU216HW,2013-10-27 00:06:00,
2013-10-26 20:11:00,56.3,46.3,30.17,NNE,23,0.0,0.0,69,0.00,,,0.00,WUHU216HW,2013-10-27 00:11:00,
2013-10-26 20:16:00,56.0,46.0,30.17,NNE,23,0.0,0.0,69,0.00,,,0.00,WUHU216HW,2013-10-27 00:16:00,
2013-10-26 20:21:00,55.8,46.3,30.17,NNE,23,0.7,0.9,70,0.00,,,0.00,WUHU216HW,2013-10-27 00:21:00,
2013-10-26 20:26:00,55.4,46.3,30.17,NNE,23,0.0,0.9,71,0.00,,,0.00,WUHU216HW,2013-10-27 00:26:00,
2013-10-26 20:31:00,55.4,46.3,30.17,NNE,23,0.0,0.2,71,0.00,,,0.00,WUHU216HW,2013-10-27 00:31:00,
2013-10-26 20:36:00,55.4,46.6,30.17,NNE,23,0.0,0.0,72,0.00,,,0.00,WUHU216HW,2013-10-27 00:36:00,
2013-10-26 20:41:00,55.3,46.5,30.17,North,0,0.0,0.0,72,0.00,,,0.00,WUHU216HW,2013-10-27 00:41:00,
2013-10-26 20:46:00,55.1,46.3,30.16,North,0,0.0,0.0,72,0.00,,,0.00,WUHU216HW,2013-10-27 00:46:00,
2013-10-26 20:51:00,54.9,46.1,30.17,North,0,0.0,0.0,72,0.00,,,0.00,WUHU216HW,2013-10-27 00:51:00,
2013-10-26 20:56:00,54.7,45.9,30.17,North,0,0.0,0.0,72,0.00,,,0.00,WUHU216HW,2013-10-27 00:56:00,
2013-10-26 21:01:00,54.5,45.7,30.17,North,0,0.0,0.0,72,0.00,,,0.00,WUHU216HW,2013-10-27 01:01:00,
2013-10-26 21:06:00,54.4,45.9,30.17,North,0,0.0,0.0,73,0.00,,,0.00,WUHU216HW,2013-10-27 01:06:00,
2013-10-26 21:11:00,54.0,45.6,30.17,North,0,0.0,0.0,73,0.00,,,0.00,WUHU216HW,2013-10-27 01:11:00,
2013-10-26 21:16:00,53.8,45.4,30.17,North,0,0.0,0.0,73,0.00,,,0.00,WUHU216HW,2013-10-27 01:16:00,
2013-10-26 21:21:00,53.6,45.5,30.16,North,0,0.4,0.4,74,0.00,,,0.00,WUHU216HW,2013-10-27 01:21:00,
2013-10-26 21:26:00,53.3,44.8,30.16,North,0,0.0,0.4,73,0.00,,,0.00,WUHU216HW,2013-10-27 01:26:00,
2013-10-26 21:31:00,52.9,44.8,30.16,North,0,0.0,0.4,74,0.00,,,0.00,WUHU216HW,2013-10-27 01:31:00,
2013-10-26 21:36:00,52.7,44.7,30.16,North,0,0.0,0.0,74,0.00,,,0.00,WUHU216HW,2013-10-27 01:36:00,
2013-10-26 21:41:00,52.6,44.6,30.16,North,0,0.0,0.0,74,0.00,,,0.00,WUHU216HW,2013-10-27 01:41:00,
2013-10-26 21:46:00,52.6,44.6,30.16,North,0,0.0,0.0,74,0.00,,,0.00,WUHU216HW,2013-10-27 01:46:00,
2013-10-26 21:51:00,52.0,44.4,30.15,North,0,0.0,0.0,75,0.00,,,0.00,WUHU216HW,2013-10-27 01:51:00,
2013-10-26 21:56:00,51.8,44.2,30.15,North,0,0.0,0.0,75,0.00,,,0.00,WUHU216HW,2013-10-27 01:56:00,
2013-10-26 22:01:00,51.7,44.0,30.15,North,0,0.0,0.0,75,0.00,,,0.00,WUHU216HW,2013-10-27 02:01:00,
2013-10-26 22:06:00,51.5,44.2,30.15,North,0,0.0,0.0,76,0.00,,,0.00,WUHU216HW,2013-10-27 02:06:00,
2013-10-26 22:11:00,51.3,44.0,30.15,North,0,0.0,0.0,76,0.00,,,0.00,WUHU216HW,2013-10-27 02:11:00,
2013-10-26 22:16:00,51.1,44.2,30.16,North,0,0.0,0.0,77,0.00,,,0.00,WUHU216HW,2013-10-27 02:16:00,
2013-10-26 22:21:00,50.8,43.8,30.16,North,0,0.0,0.0,77,0.00,,,0.00,WUHU216HW,2013-10-27 02:21:00,
2013-10-26 22:26:00,50.8,44.1,30.16,North,0,0.0,0.0,78,0.00,,,0.00,WUHU216HW,2013-10-27 02:26:00,
2013-10-26 22:31:00,50.6,43.9,30.16,North,0,0.0,0.0,78,0.00,,,0.00,WUHU216HW,2013-10-27 02:31:00,
2013-10-26 22:36:00,50.4,43.7,30.16,North,0,0.0,0.0,78,0.00,,,0.00,WUHU216HW,2013-10-27 02:36:00,
2013-10-26 22:41:00,50.4,43.7,30.16,North,0,0.0,0.0,78,0.00,,,0.00,WUHU216HW,2013-10-27 02:41:00,
2013-10-26 22:46:00,50.2,43.6,30.16,North,0,0.0,0.0,78,0.00,,,0.00,WUHU216HW,2013-10-27 02:46:00,
2013-10-26 22:51:00,50.0,43.4,30.16,North,0,0.0,0.0,78,0.00,,,0.00,WUHU216HW,2013-10-27 02:51:00,
2013-10-26 22:56:00,49.9,43.6,30.16,North,0,0.0,0.4,79,0.00,,,0.00,WUHU216HW,2013-10-27 02:56:00,
2013-10-26 23:01:00,49.5,43.2,30.16,North,0,0.0,0.4,79,0.00,,,0.00,WUHU216HW,2013-10-27 03:01:00,
2013-10-26 23:06:00,49.3,43.0,30.17,North,0,0.0,0.4,79,0.00,,,0.00,WUHU216HW,2013-10-27 03:06:00,
2013-10-26 23:11:00,49.3,43.0,30.17,North,0,0.0,0.0,79,0.00,,,0.00,WUHU216HW,2013-10-27 03:11:00,
2013-10-26 23:16:00,49.1,43.2,30.17,North,0,0.0,0.0,80,0.00,,,0.00,WUHU216HW,2013-10-27 03:16:00,
2013-10-26 23:21:00,49.0,43.0,30.17,North,0,0.0,0.0,80,0.00,,,0.00,WUHU216HW,2013-10-27 03:21:00,
2013-10-26 23:26:00,48.8,42.8,30.17,North,0,0.0,0.0,80,0.00,,,0.00,WUHU216HW,2013-10-27 03:26:00,
2013-10-26 23:31:00,48.6,42.7,30.17,North,0,0.0,0.0,80,0.00,,,0.00,WUHU216HW,2013-10-27 03:31:00,
2013-10-26 23:36:00,48.4,42.5,30.17,North,0,0.0,0.0,80,0.00,,,0.00,WUHU216HW,2013-10-27 03:36:00,
2013-10-26 23:41:00,48.4,42.9,30.17,North,0,0.0,0.0,81,0.00,,,0.00,WUHU216HW,2013-10-27 03:41:00,
2013-10-26 23:46:00,48.2,42.3,30.17,North,0,0.0,0.0,80,0.00,,,0.00,WUHU216HW,2013-10-27 03:46:00,
2013-10-26 23:51:00,48.2,42.3,30.17,North,0,0.0,0.0,80,0.00,,,0.00,WUHU216HW,2013-10-27 03:51:00,
2013-10-26 23:56:00,48.1,42.1,30.17,North,0,0.0,0.0,80,0.00,,,0.00,WUHU216HW,2013-10-27 03:56:00,